createdAt,value
2023-04-06T00:02:21.748Z,102233.28
2023-04-06T00:04:49.843Z,102224.31
2023-04-06T00:07:19.545Z,102234.25
2023-04-06T00:09:47.700Z,102237.84
2023-04-06T00:12:16.078Z,102243.38
2023-04-06T00:14:44.239Z,102242.50
2023-04-06T00:17:12.445Z,102247.03
2023-04-06T00:19:40.643Z,102250.72
2023-04-06T00:22:08.899Z,102250.72
2023-04-06T00:24:38.477Z,102248.00
2023-04-06T00:27:06.604Z,102246.16
2023-04-06T00:29:34.852Z,102247.03
2023-04-06T00:32:03.095Z,102249.63
2023-04-06T00:34:31.424Z,102250.59
2023-04-06T00:36:59.527Z,102249.63
2023-04-06T00:39:27.675Z,102251.47
2023-04-06T00:41:58.255Z,102248.78
2023-04-06T00:44:26.782Z,102243.47
2023-04-06T00:46:55.137Z,102251.56
2023-04-06T00:49:23.298Z,102246.16
2023-04-06T00:51:51.465Z,102253.41
2023-04-06T00:54:19.662Z,102255.25
2023-04-06T00:56:47.819Z,102249.97
2023-04-06T00:59:17.398Z,102256.25
2023-04-06T01:01:45.716Z,102251.94
2023-04-06T01:04:30.837Z,102253.91
2023-04-06T01:06:59.103Z,102183.88
2023-04-06T01:09:34.290Z,102255.72
2023-04-06T01:12:07.035Z,102256.69
2023-04-06T01:14:38.057Z,102257.56
2023-04-06T01:17:06.205Z,102256.81
2023-04-06T01:19:35.501Z,102256.91
2023-04-06T01:22:04.172Z,102257.69
2023-04-06T01:24:34.006Z,102247.72
2023-04-06T01:27:02.772Z,102254.13
2023-04-06T01:29:42.201Z,102251.50
2023-04-06T01:32:12.250Z,102251.50
2023-04-06T01:34:48.546Z,102245.50
2023-04-06T01:37:16.840Z,102251.50
2023-04-06T01:39:47.725Z,102220.38
2023-04-06T01:42:25.467Z,102254.22
2023-04-06T01:44:53.768Z,102241.69
2023-04-06T01:47:21.912Z,102251.41
2023-04-06T01:49:50.488Z,102248.81
2023-04-06T01:52:20.514Z,102251.41
2023-04-06T01:54:54.832Z,102250.53
2023-04-06T01:57:45.913Z,102255.22
2023-04-06T02:00:21.366Z,102252.59
2023-04-06T02:02:54.642Z,102263.19
2023-04-06T02:05:27.589Z,102258.66
2023-04-06T02:07:57.435Z,102259.53
2023-04-06T02:10:34.988Z,102259.53
2023-04-06T02:13:10.424Z,102257.69
2023-04-06T02:15:38.505Z,102261.22
2023-04-06T02:18:06.855Z,102254.13
2023-04-06T02:20:34.926Z,102254.34
2023-04-06T02:23:03.062Z,102256.91
2023-04-06T02:25:31.135Z,102264.19
2023-04-06T02:28:00.632Z,102263.41
2023-04-06T02:30:33.532Z,102267.84
2023-04-06T02:33:01.935Z,102263.31
2023-04-06T02:35:33.297Z,102262.44
2023-04-06T02:38:01.708Z,102256.09
2023-04-06T02:40:29.768Z,102262.44
2023-04-06T02:43:01.587Z,102259.75
2023-04-06T02:45:33.341Z,102253.84
2023-04-06T02:48:03.379Z,102267.63
2023-04-06T02:50:33.358Z,102267.63
2023-04-06T02:53:05.048Z,102268.38
2023-04-06T02:55:33.979Z,102270.13
2023-04-06T02:58:03.632Z,102271.81
2023-04-06T03:00:39.362Z,102276.34
2023-04-06T03:03:08.726Z,102272.69
2023-04-06T03:05:37.002Z,102268.16
2023-04-06T03:08:05.487Z,102274.44
2023-04-06T03:10:42.419Z,102272.56
2023-04-06T03:13:12.016Z,102272.47
2023-04-06T03:15:49.397Z,102261.75
2023-04-06T03:18:24.297Z,102257.69
2023-04-06T03:20:54.897Z,102275.16
2023-04-06T03:23:26.368Z,102273.34
2023-04-06T03:25:59.335Z,102277.13
2023-04-06T03:28:29.155Z,102271.59
2023-04-06T03:31:04.361Z,102268.25
2023-04-06T03:33:54.875Z,102271.09
2023-04-06T03:36:33.145Z,102279.41
2023-04-06T03:39:02.377Z,102279.41
2023-04-06T03:41:33.746Z,102276.72
2023-04-06T03:44:23.582Z,102283.13
2023-04-06T03:46:52.085Z,102284.81
2023-04-06T03:49:20.626Z,102282.25
2023-04-06T03:51:51.867Z,102283.22
2023-04-06T03:54:20.076Z,102292.19
2023-04-06T03:56:48.223Z,102296.72
2023-04-06T03:59:16.403Z,102294.88
2023-04-06T04:01:46.042Z,102295.75
2023-04-06T04:04:14.138Z,102289.47
2023-04-06T04:06:42.284Z,102296.06
2023-04-06T04:09:10.504Z,102295.84
2023-04-06T04:11:38.728Z,102292.19
2023-04-06T04:14:06.943Z,102294.75
2023-04-06T04:16:35.125Z,102301.03
2023-04-06T04:19:06.161Z,102302.78
2023-04-06T04:21:34.515Z,102287.97
2023-04-06T04:24:09.356Z,102300.81
2023-04-06T04:26:40.371Z,102287.97
2023-04-06T04:29:09.648Z,102303.38
2023-04-06T04:31:39.309Z,102304.38
2023-04-06T04:34:16.848Z,102274.28
2023-04-06T04:36:45.042Z,102307.31
2023-04-06T04:39:18.905Z,102305.56
2023-04-06T04:41:51.644Z,102310.75
2023-04-06T04:44:19.815Z,102316.16
2023-04-06T04:46:48.889Z,102316.16
2023-04-06T04:49:19.848Z,102319.88
2023-04-06T04:51:47.976Z,102327.97
2023-04-06T04:54:25.727Z,102323.75
2023-04-06T04:56:53.879Z,102321.06
2023-04-06T04:59:30.943Z,102334.69
2023-04-06T05:02:09.881Z,102338.34
2023-04-06T05:04:48.613Z,102323.22
2023-04-06T05:07:22.323Z,102335.78
2023-04-06T05:09:51.779Z,102331.34
2023-04-06T05:12:21.561Z,102326.16
2023-04-06T05:15:00.033Z,102331.34
2023-04-06T05:17:28.924Z,102330.47
2023-04-06T05:19:59.240Z,102331.22
2023-04-06T05:22:28.776Z,102332.22
2023-04-06T05:25:06.286Z,102326.91
2023-04-06T05:27:34.912Z,102327.03
2023-04-06T05:30:09.377Z,102332.31
2023-04-06T05:32:43.775Z,102300.34
2023-04-06T05:35:13.763Z,102336.63
2023-04-06T05:37:44.231Z,102329.50
2023-04-06T05:40:12.986Z,102339.31
2023-04-06T05:42:42.128Z,102340.09
2023-04-06T05:45:11.961Z,102333.81
2023-04-06T05:47:41.563Z,102336.41
2023-04-06T05:50:23.561Z,102332.06
2023-04-06T05:52:52.625Z,102342.78
2023-04-06T05:55:23.543Z,102349.16
2023-04-06T05:58:01.022Z,102346.47
2023-04-06T06:00:29.181Z,102345.50
2023-04-06T06:03:07.026Z,102345.72
2023-04-06T06:05:37.992Z,102343.75
2023-04-06T06:08:18.871Z,102307.69
2023-04-06T06:10:48.595Z,102357.28
2023-04-06T06:13:18.872Z,102355.44
2023-04-06T06:15:47.085Z,102358.03
2023-04-06T06:18:15.632Z,102360.72
2023-04-06T06:20:45.134Z,102359.88
2023-04-06T06:23:13.288Z,102367.13
2023-04-06T06:25:41.897Z,102359.88
2023-04-06T06:28:10.457Z,102362.59
2023-04-06T06:30:38.730Z,102363.44
2023-04-06T06:33:07.315Z,102361.59
2023-04-06T06:35:36.220Z,102360.63
2023-04-06T06:38:07.412Z,102356.53
2023-04-06T06:40:35.894Z,102366.91
2023-04-06T06:43:04.650Z,102374.00
2023-04-06T06:45:46.358Z,102371.22
2023-04-06T06:48:15.645Z,102377.47
2023-04-06T06:50:43.819Z,102374.53
2023-04-06T06:53:15.794Z,102373.56
2023-04-06T06:55:45.202Z,102383.41
2023-04-06T06:58:13.417Z,102378.84
2023-04-06T07:00:41.634Z,102379.72
2023-04-06T07:03:09.779Z,102380.47
2023-04-06T07:05:40.907Z,102383.09
2023-04-06T07:08:09.513Z,102379.38
2023-04-06T07:10:38.968Z,102381.88
2023-04-06T07:13:07.300Z,102378.06
2023-04-06T07:15:36.021Z,102378.72
2023-04-06T07:18:04.314Z,102382.91
2023-04-06T07:20:32.425Z,102389.94
2023-04-06T07:23:00.623Z,102381.59
2023-04-06T07:25:28.982Z,102385.03
2023-04-06T07:27:58.692Z,102383.34
2023-04-06T07:30:29.421Z,102395.41
2023-04-06T07:33:00.104Z,102384.25
2023-04-06T07:35:31.149Z,102387.75
2023-04-06T07:37:59.794Z,102390.97
2023-04-06T07:40:28.263Z,102394.41
2023-04-06T07:43:00.092Z,102388.78
2023-04-06T07:45:28.345Z,102392.09
2023-04-06T07:47:57.534Z,102387.47
2023-04-06T07:50:27.594Z,102389.91
2023-04-06T07:52:56.737Z,102393.25
2023-04-06T07:55:24.908Z,102394.13
2023-04-06T07:57:53.013Z,102386.09
2023-04-06T08:00:23.489Z,102390.41
2023-04-06T08:02:51.851Z,102394.75
2023-04-06T08:05:20.301Z,102399.09
2023-04-06T08:07:48.519Z,102395.38
2023-04-06T08:10:16.657Z,102401.66
2023-04-06T08:12:44.823Z,102401.44
2023-04-06T08:15:13.073Z,102409.41
2023-04-06T08:17:42.657Z,102406.63
2023-04-06T08:20:11.716Z,102407.44
2023-04-06T08:22:39.828Z,102406.63
2023-04-06T08:25:08.564Z,102413.50
2023-04-06T08:27:36.894Z,102406.03
2023-04-06T08:30:05.484Z,102411.31
2023-04-06T08:32:33.632Z,102384.56
2023-04-06T08:35:03.092Z,102413.91
2023-04-06T08:37:31.333Z,102420.81
2023-04-06T08:39:59.980Z,102419.06
2023-04-06T08:42:31.162Z,102411.06
2023-04-06T08:44:59.573Z,102405.03
2023-04-06T08:47:28.335Z,102408.50
2023-04-06T08:49:57.577Z,102403.81
2023-04-06T08:52:28.604Z,102408.25
2023-04-06T08:54:56.679Z,102411.72
2023-04-06T08:57:25.370Z,102408.00
2023-04-06T08:59:54.215Z,102413.19
2023-04-06T09:02:23.601Z,102417.63
2023-04-06T09:04:55.540Z,102404.09
2023-04-06T09:07:24.959Z,102406.91
2023-04-06T09:09:54.445Z,102401.50
2023-04-06T09:12:27.583Z,102403.34
2023-04-06T09:14:56.892Z,102408.00
2023-04-06T09:17:26.185Z,102373.50
2023-04-06T09:19:55.053Z,102408.00
2023-04-06T09:22:23.277Z,102405.44
2023-04-06T09:24:54.766Z,102404.56
2023-04-06T09:27:32.846Z,102412.69
2023-04-06T09:30:09.301Z,102400.13
2023-04-06T09:32:50.897Z,102402.97
2023-04-06T09:35:21.224Z,102413.06
2023-04-06T09:37:49.984Z,102387.41
2023-04-06T09:40:20.302Z,102403.19
2023-04-06T09:42:49.748Z,102404.19
2023-04-06T09:45:18.126Z,102400.63
2023-04-06T09:47:48.186Z,102399.63
2023-04-06T09:50:17.445Z,102398.63
2023-04-06T09:52:49.794Z,102404.94
2023-04-06T09:55:26.229Z,102399.88
2023-04-06T09:58:00.387Z,102403.31
2023-04-06T10:00:30.606Z,102395.19
2023-04-06T10:03:04.721Z,102399.75
2023-04-06T10:05:39.687Z,102399.88
2023-04-06T10:08:09.270Z,102401.72
2023-04-06T10:10:39.386Z,102402.69
2023-04-06T10:13:08.237Z,102402.81
2023-04-06T10:15:36.247Z,102403.78
2023-04-06T10:18:05.784Z,102404.66
2023-04-06T10:20:42.975Z,102409.06
2023-04-06T10:23:16.960Z,102401.94
2023-04-06T10:25:56.479Z,102400.94
2023-04-06T10:28:25.870Z,102410.69
2023-04-06T10:31:00.017Z,102398.88
2023-04-06T10:33:28.665Z,102403.53
2023-04-06T10:35:57.284Z,102400.09
2023-04-06T10:38:38.926Z,102398.22
2023-04-06T10:41:12.440Z,102398.38
2023-04-06T10:43:42.527Z,102402.03
2023-04-06T10:46:11.983Z,102399.34
2023-04-06T10:48:42.272Z,102401.19
2023-04-06T10:51:12.473Z,102401.28
2023-04-06T10:53:40.722Z,102396.75
2023-04-06T10:56:14.703Z,102353.13
2023-04-06T10:58:47.919Z,102395.88
2023-04-06T11:01:18.451Z,102393.91
2023-04-06T11:03:47.271Z,102395.66
2023-04-06T11:06:20.975Z,102390.97
2023-04-06T11:08:49.479Z,102390.75
2023-04-06T11:11:21.083Z,102395.06
2023-04-06T11:13:51.669Z,102393.22
2023-04-06T11:16:21.676Z,102375.09
2023-04-06T11:18:55.209Z,102386.22
2023-04-06T11:21:36.339Z,102384.38
2023-04-06T11:24:12.027Z,102381.66
2023-04-06T11:26:44.728Z,102385.47
2023-04-06T11:29:13.797Z,102379.91
2023-04-06T11:31:43.754Z,102386.06
2023-04-06T11:34:13.489Z,102362.44
2023-04-06T11:36:45.755Z,102377.00
2023-04-06T11:39:14.704Z,102381.53
2023-04-06T11:41:49.216Z,102377.97
2023-04-06T11:44:17.489Z,102377.13
2023-04-06T11:46:54.291Z,102373.03
2023-04-06T11:49:22.844Z,102375.75
2023-04-06T11:51:51.426Z,102372.81
2023-04-06T11:54:19.748Z,102364.94
2023-04-06T11:56:50.009Z,102371.84
2023-04-06T11:59:18.290Z,102366.66
2023-04-06T12:01:47.476Z,102342.75
2023-04-06T12:04:15.674Z,102370.59
2023-04-06T12:06:43.835Z,102358.50
2023-04-06T12:09:11.908Z,102377.13
2023-04-06T12:11:39.989Z,102372.81
2023-04-06T12:14:09.525Z,102369.31
2023-04-06T12:16:37.681Z,102362.44
2023-04-06T12:19:06.322Z,102372.41
2023-04-06T12:21:36.246Z,102369.81
2023-04-06T12:24:04.408Z,102364.50
2023-04-06T12:26:32.940Z,102360.94
2023-04-06T12:29:07.495Z,102361.94
2023-04-06T12:31:39.812Z,102361.94
2023-04-06T12:34:08.684Z,102356.63
2023-04-06T12:36:36.939Z,102351.34
2023-04-06T12:39:05.376Z,102348.75
2023-04-06T12:41:33.670Z,102336.94
2023-04-06T12:44:01.978Z,102336.84
2023-04-06T12:46:31.838Z,102339.66
2023-04-06T12:49:02.111Z,102335.09
2023-04-06T12:51:30.638Z,102323.13
2023-04-06T12:53:58.922Z,102331.53
2023-04-06T12:56:27.715Z,102327.22
2023-04-06T12:58:56.271Z,102329.91
2023-04-06T13:01:24.590Z,102327.44
2023-04-06T13:03:52.832Z,102324.41
2023-04-06T13:06:22.683Z,102327.94
2023-04-06T13:08:51.947Z,102328.81
2023-04-06T13:11:21.620Z,102331.44
2023-04-06T13:13:49.741Z,102322.31
2023-04-06T13:16:17.962Z,102324.16
2023-04-06T13:18:46.324Z,102323.31
2023-04-06T13:21:17.033Z,102319.00
2023-04-06T13:23:46.571Z,102318.88
2023-04-06T13:26:17.401Z,102324.28
2023-04-06T13:28:45.574Z,102318.13
2023-04-06T13:31:13.818Z,102319.22
2023-04-06T13:33:42.681Z,102322.03
2023-04-06T13:36:11.026Z,102323.03
2023-04-06T13:38:40.345Z,102333.09
2023-04-06T13:41:09.898Z,102323.25
2023-04-06T13:43:37.930Z,102316.13
2023-04-06T13:46:06.461Z,102304.78
2023-04-06T13:48:34.576Z,102307.38
2023-04-06T13:51:10.860Z,102303.69
2023-04-06T13:53:40.445Z,102305.66
2023-04-06T13:56:11.341Z,102302.81
2023-04-06T13:58:39.202Z,102299.38
2023-04-06T14:01:08.567Z,102302.94
2023-04-06T14:03:37.773Z,102300.38
2023-04-06T14:06:20.843Z,102296.81
2023-04-06T14:08:55.685Z,102296.56
2023-04-06T14:11:25.205Z,102298.03
2023-04-06T14:13:53.539Z,102296.06
2023-04-06T14:16:23.925Z,102293.38
2023-04-06T14:18:52.162Z,102283.78
2023-04-06T14:21:20.998Z,102294.25
2023-04-06T14:23:49.007Z,102296.81
2023-04-06T14:26:17.641Z,102286.34
2023-04-06T14:28:47.617Z,102288.59
2023-04-06T14:31:17.248Z,102290.44
2023-04-06T14:33:45.816Z,102287.84
2023-04-06T14:36:14.100Z,102284.16
2023-04-06T14:38:42.153Z,102285.00
2023-04-06T14:41:11.639Z,102285.88
2023-04-06T14:43:39.674Z,102292.25
2023-04-06T14:46:09.839Z,102280.47
2023-04-06T14:48:37.904Z,102283.19
2023-04-06T14:51:06.048Z,102278.63
2023-04-06T14:53:34.386Z,102271.63
2023-04-06T14:56:02.246Z,102268.16
2023-04-06T14:58:30.439Z,102270.53
2023-04-06T15:00:59.748Z,102266.81
2023-04-06T15:03:32.265Z,102232.19
2023-04-06T15:06:00.949Z,102266.72
2023-04-06T15:08:30.221Z,102260.28
2023-04-06T15:11:01.628Z,102271.13
2023-04-06T15:13:30.558Z,102272.00
2023-04-06T15:15:59.877Z,102279.13
2023-04-06T15:18:31.067Z,102268.31
2023-04-06T15:20:59.124Z,102270.16
2023-04-06T15:23:39.393Z,102274.69
2023-04-06T15:26:07.480Z,102264.25
2023-04-06T15:28:35.702Z,102269.41
2023-04-06T15:31:07.151Z,102271.13
2023-04-06T15:33:36.704Z,102269.28
2023-04-06T15:36:10.223Z,102268.66
2023-04-06T15:38:38.401Z,102284.56
2023-04-06T15:41:06.662Z,102280.00
2023-04-06T15:43:35.357Z,102264.47
2023-04-06T15:46:05.125Z,102278.41
2023-04-06T15:48:34.816Z,102270.53
2023-04-06T15:51:04.293Z,102280.25
2023-04-06T15:53:32.226Z,102271.13
2023-04-06T15:56:01.386Z,102281.94
2023-04-06T15:58:29.785Z,102271.13
2023-04-06T16:00:59.623Z,102270.38
2023-04-06T16:03:28.613Z,102265.84
2023-04-06T16:06:08.225Z,102265.72
2023-04-06T16:08:39.479Z,102263.88
2023-04-06T16:11:07.725Z,102265.72
2023-04-06T16:13:36.827Z,102255.25
2023-04-06T16:16:05.972Z,102266.56
2023-04-06T16:18:36.212Z,102265.72
2023-04-06T16:21:05.486Z,102253.00
2023-04-06T16:23:34.262Z,102271.13
2023-04-06T16:26:03.723Z,102266.81
2023-04-06T16:28:33.112Z,102265.72
2023-04-06T16:31:01.642Z,102266.72
2023-04-06T16:33:29.604Z,102274.06
2023-04-06T16:35:57.598Z,102274.06
2023-04-06T16:38:30.029Z,102264.25
2023-04-06T16:41:02.121Z,102274.19
2023-04-06T16:43:32.302Z,102277.88
2023-04-06T16:46:00.665Z,102271.63
2023-04-06T16:48:28.762Z,102277.03
2023-04-06T16:50:56.818Z,102263.22
2023-04-06T16:53:24.826Z,102274.44
2023-04-06T16:55:52.840Z,102284.50
2023-04-06T16:58:20.958Z,102278.38
2023-04-06T17:00:50.401Z,102282.91
2023-04-06T17:03:18.636Z,102284.00
2023-04-06T17:05:46.830Z,102283.13
2023-04-06T17:08:14.801Z,102280.78
2023-04-06T17:13:14.962Z,102289.78
2023-04-06T17:15:44.219Z,102290.88
2023-04-06T17:18:13.589Z,102291.84
2023-04-06T17:20:41.596Z,102292.94
2023-04-06T17:23:09.577Z,102289.38
2023-04-06T17:25:38.994Z,102297.47
2023-04-06T17:28:06.993Z,102299.41
2023-04-06T17:30:35.085Z,102304.09
2023-04-06T17:33:03.244Z,102302.34
2023-04-06T17:35:32.685Z,102303.34
2023-04-06T17:38:02.389Z,102301.63
2023-04-06T17:40:30.609Z,102309.81
2023-04-06T17:42:58.593Z,102310.91
2023-04-06T17:45:26.492Z,102307.47
2023-04-06T17:47:54.694Z,102309.44
2023-04-06T17:50:27.037Z,102310.53
2023-04-06T17:52:56.677Z,102301.91
2023-04-06T17:55:24.923Z,102301.19
2023-04-06T17:57:52.896Z,102309.91
2023-04-06T18:00:24.310Z,102309.28
2023-04-06T18:02:54.395Z,102302.13
2023-04-06T18:05:23.387Z,102313.91
2023-04-06T18:07:52.615Z,102304.09
2023-04-06T18:10:22.148Z,102307.03
2023-04-06T18:12:50.194Z,102308.88
2023-04-06T18:15:18.395Z,102308.13
2023-04-06T18:17:47.691Z,102304.69
2023-04-06T18:20:17.131Z,102312.00
2023-04-06T18:22:45.072Z,102300.69
2023-04-06T18:25:13.167Z,102310.31
2023-04-06T18:27:42.664Z,102313.00
2023-04-06T18:30:13.103Z,102322.00
2023-04-06T18:32:41.372Z,102318.41
2023-04-06T18:35:11.290Z,102329.22
2023-04-06T18:37:41.757Z,102330.09
2023-04-06T18:40:30.884Z,102301.47
2023-04-06T18:43:00.567Z,102329.09
2023-04-06T18:45:28.500Z,102335.38
2023-04-06T18:47:57.625Z,102338.09
2023-04-06T18:50:26.129Z,102339.81
2023-04-06T18:52:54.504Z,102343.28
2023-04-06T18:55:22.852Z,102349.53
2023-04-06T18:57:50.933Z,102330.84
2023-04-06T19:00:20.676Z,102344.75
2023-04-06T19:02:49.074Z,102345.63
2023-04-06T19:05:17.949Z,102340.22
2023-04-06T19:07:52.054Z,102340.13
2023-04-06T19:10:20.986Z,102255.38
2023-04-06T19:12:49.759Z,102353.28
2023-04-06T19:15:17.993Z,102340.63
2023-04-06T19:17:47.844Z,102344.97
2023-04-06T19:20:15.904Z,102343.13
2023-04-06T19:22:44.781Z,102343.00
2023-04-06T19:25:13.370Z,102349.13
2023-04-06T19:27:42.024Z,102335.22
2023-04-06T19:30:10.862Z,102339.94
2023-04-06T19:32:39.951Z,102345.25
2023-04-06T19:35:12.119Z,102343.28
2023-04-06T19:37:40.472Z,102341.53
2023-04-06T19:40:10.589Z,102349.66
2023-04-06T19:42:39.733Z,102343.50
2023-04-06T19:45:08.941Z,102342.53
2023-04-06T19:47:37.022Z,102349.66
2023-04-06T19:50:06.093Z,102345.25
2023-04-06T19:52:35.804Z,102359.59
2023-04-06T19:55:04.136Z,102357.03
2023-04-06T19:57:32.037Z,102354.31
2023-04-06T20:00:00.163Z,102354.31
2023-04-06T20:02:28.462Z,102223.00
2023-04-06T20:04:56.552Z,102349.88
2023-04-06T20:07:24.509Z,102351.09
2023-04-06T20:09:54.069Z,102355.41
2023-04-06T20:12:22.091Z,102353.69
2023-04-06T20:14:51.102Z,102326.31
2023-04-06T20:17:19.025Z,102352.06
2023-04-06T20:19:46.913Z,102347.66
2023-04-06T20:22:14.947Z,102342.34
2023-04-06T20:24:42.901Z,102352.06
2023-04-06T20:27:12.520Z,102353.06
2023-04-06T20:29:40.487Z,102352.28
2023-04-06T20:32:08.720Z,102355.13
2023-04-06T20:34:36.729Z,102356.22
2023-04-06T20:37:05.119Z,102346.50
2023-04-06T20:39:33.164Z,102347.81
2023-04-06T20:42:01.329Z,102345.84
2023-04-06T20:44:31.198Z,102354.97
2023-04-06T20:46:59.592Z,102352.47
2023-04-06T20:49:27.851Z,102356.25
2023-04-06T20:51:55.792Z,102343.84
2023-04-06T20:54:23.914Z,102349.59
2023-04-06T20:56:51.961Z,102344.41
2023-04-06T20:59:19.973Z,102317.19
2023-04-06T21:01:49.743Z,102347.44
2023-04-06T21:04:18.509Z,102352.09
2023-04-06T21:06:46.757Z,102353.31
2023-04-06T21:09:14.945Z,102353.41
2023-04-06T21:11:43.176Z,102347.25
2023-04-06T21:14:11.166Z,102351.91
2023-04-06T21:16:39.436Z,102351.13
2023-04-06T21:19:08.765Z,102353.94
2023-04-06T21:21:36.769Z,102349.59
2023-04-06T21:24:05.101Z,102347.91
2023-04-06T21:26:33.072Z,102346.50
2023-04-06T21:29:02.153Z,102353.53
2023-04-06T21:31:30.223Z,102357.19
2023-04-06T21:33:58.358Z,102360.00
2023-04-06T21:36:27.838Z,102349.19
2023-04-06T21:38:55.893Z,102357.41
2023-04-06T21:41:23.778Z,102348.34
2023-04-06T21:43:51.717Z,102356.56
2023-04-06T21:46:19.677Z,102353.94
2023-04-06T21:48:47.864Z,102355.78
2023-04-06T21:51:18.569Z,102360.34
2023-04-06T21:53:48.285Z,102350.50
2023-04-06T21:56:21.185Z,102357.66
2023-04-06T21:58:49.446Z,102350.50
2023-04-06T22:01:17.456Z,102353.22
2023-04-06T22:03:45.903Z,102353.22
2023-04-06T22:06:14.361Z,102355.03
2023-04-06T22:08:42.696Z,102358.69
2023-04-06T22:11:12.302Z,102357.88
2023-04-06T22:13:40.553Z,102347.16
2023-04-06T22:16:09.189Z,102355.25
2023-04-06T22:18:39.150Z,102351.69
2023-04-06T22:21:07.723Z,102348.16
2023-04-06T22:23:41.984Z,102349.09
2023-04-06T22:26:13.071Z,102344.66
2023-04-06T22:28:42.349Z,102347.50
2023-04-06T22:31:10.491Z,102340.34
2023-04-06T22:33:38.521Z,102340.47
2023-04-06T22:36:07.083Z,102339.59
2023-04-06T22:38:35.190Z,102342.31
2023-04-06T22:41:03.291Z,102334.63
2023-04-06T22:43:32.732Z,102346.84
2023-04-06T22:46:00.868Z,102344.13
2023-04-06T22:48:28.796Z,102336.91
2023-04-06T22:50:57.185Z,102340.47
2023-04-06T22:53:25.101Z,102321.81
2023-04-06T22:55:53.023Z,102343.38
2023-04-06T22:58:21.139Z,102345.22
2023-04-06T23:00:50.525Z,102343.38
2023-04-06T23:03:18.737Z,102345.13
2023-04-06T23:05:47.633Z,102348.78
2023-04-06T23:08:15.578Z,102343.28
2023-04-06T23:10:43.482Z,102314.03
2023-04-06T23:13:12.040Z,102325.25
2023-04-06T23:15:40.138Z,102344.25
2023-04-06T23:18:09.436Z,102345.13
2023-04-06T23:20:37.405Z,102348.78
2023-04-06T23:23:05.609Z,102341.56
2023-04-06T23:25:33.697Z,102347.91
2023-04-06T23:28:01.692Z,102337.13
2023-04-06T23:30:29.654Z,102341.69
2023-04-06T23:32:57.725Z,102346.22
2023-04-06T23:35:27.105Z,102339.94
2023-04-06T23:37:55.118Z,102344.47
2023-04-06T23:40:24.870Z,102349.00
2023-04-06T23:42:52.739Z,102345.56
2023-04-06T23:45:20.893Z,102347.28
2023-04-06T23:47:48.836Z,102345.44
2023-04-06T23:50:16.924Z,102350.00
2023-04-06T23:52:46.261Z,102337.44
2023-04-06T23:55:14.248Z,102335.72
2023-04-06T23:57:42.230Z,102322.53
